createdAt,value
2023-01-17T00:00:37.536Z,86.02
2023-01-17T00:01:37.449Z,85.99
2023-01-17T00:02:37.415Z,85.99
2023-01-17T00:03:37.485Z,85.99
2023-01-17T00:04:37.378Z,85.68
2023-01-17T00:05:37.493Z,85.26
2023-01-17T00:06:37.458Z,85.36
2023-01-17T00:07:37.388Z,85.26
2023-01-17T00:08:37.342Z,84.78
2023-01-17T00:09:37.368Z,84.78
2023-01-17T00:10:37.413Z,84.68
2023-01-17T00:11:38.384Z,84.68
2023-01-17T00:12:37.337Z,84.78
2023-01-17T00:13:37.305Z,84.78
2023-01-17T00:14:37.288Z,84.78
2023-01-17T00:15:37.326Z,84.78
2023-01-17T00:16:37.254Z,84.88
2023-01-17T00:17:37.284Z,84.88
2023-01-17T00:18:37.223Z,84.68
2023-01-17T00:19:37.316Z,84.88
2023-01-17T00:20:37.325Z,84.99
2023-01-17T00:21:37.239Z,85.09
2023-01-17T00:22:37.226Z,85.19
2023-01-17T00:23:37.204Z,85.09
2023-01-17T00:24:37.154Z,85.19
2023-01-17T00:25:37.258Z,85.09
2023-01-17T00:26:37.167Z,85.19
2023-01-17T00:27:37.166Z,85.30
2023-01-17T00:28:37.202Z,85.30
2023-01-17T00:29:37.146Z,85.40
2023-01-17T00:30:37.132Z,85.50
2023-01-17T00:31:37.183Z,85.71
2023-01-17T00:32:37.073Z,85.71
2023-01-17T00:33:37.158Z,85.71
2023-01-17T00:34:37.075Z,85.71
2023-01-17T00:35:37.089Z,85.71
2023-01-17T00:36:37.041Z,85.82
2023-01-17T00:37:37.039Z,85.96
2023-01-17T00:38:37.026Z,86.27
2023-01-17T00:39:37.014Z,86.58
2023-01-17T00:40:37.050Z,86.47
2023-01-17T00:41:37.008Z,86.47
2023-01-17T00:42:37.022Z,86.07
2023-01-17T00:43:36.992Z,86.17
2023-01-17T00:44:36.937Z,86.13
2023-01-17T00:45:36.955Z,86.47
2023-01-17T00:46:36.992Z,86.17
2023-01-17T00:47:37.715Z,86.07
2023-01-17T00:48:36.895Z,86.23
2023-01-17T00:49:36.939Z,86.58
2023-01-17T00:50:36.870Z,86.58
2023-01-17T00:51:36.893Z,85.96
2023-01-17T00:52:36.839Z,86.07
2023-01-17T00:53:36.866Z,86.27
2023-01-17T00:54:36.842Z,86.37
2023-01-17T00:55:36.841Z,86.47
2023-01-17T00:56:36.842Z,86.27
2023-01-17T00:57:36.820Z,86.37
2023-01-17T00:58:36.784Z,86.58
2023-01-17T00:59:36.819Z,86.58
2023-01-17T01:00:36.870Z,86.58
2023-01-17T01:01:37.083Z,86.58
2023-01-17T01:02:36.798Z,86.58
2023-01-17T01:03:36.782Z,86.58
2023-01-17T01:04:36.724Z,86.27
2023-01-17T01:05:36.741Z,86.17
2023-01-17T01:06:36.702Z,86.17
2023-01-17T01:07:36.703Z,86.27
2023-01-17T01:08:36.718Z,86.17
2023-01-17T01:09:36.690Z,86.27
2023-01-17T01:10:36.712Z,86.17
2023-01-17T01:11:36.669Z,86.17
2023-01-17T01:12:36.703Z,86.07
2023-01-17T01:13:36.682Z,85.96
2023-01-17T01:14:36.713Z,85.75
2023-01-17T01:15:36.630Z,85.65
2023-01-17T01:16:36.657Z,85.55
2023-01-17T01:17:36.585Z,85.55
2023-01-17T01:18:36.586Z,85.55
2023-01-17T01:19:36.557Z,85.55
2023-01-17T01:20:36.567Z,85.55
2023-01-17T01:21:36.540Z,85.50
2023-01-17T01:22:36.551Z,85.61
2023-01-17T01:23:36.545Z,85.50
2023-01-17T01:24:36.530Z,85.30
2023-01-17T01:25:36.485Z,85.30
2023-01-17T01:26:36.505Z,85.19
2023-01-17T01:27:36.478Z,85.30
2023-01-17T01:28:36.485Z,85.19
2023-01-17T01:29:36.439Z,85.19
2023-01-17T01:30:36.454Z,84.61
2023-01-17T01:31:36.451Z,84.92
2023-01-17T01:32:36.454Z,85.03
2023-01-17T01:33:36.403Z,84.72
2023-01-17T01:34:36.436Z,84.72
2023-01-17T01:35:37.375Z,85.03
2023-01-17T01:36:36.381Z,84.82
2023-01-17T01:37:36.336Z,84.72
2023-01-17T01:38:36.407Z,84.82
2023-01-17T01:39:36.341Z,84.82
2023-01-17T01:40:36.356Z,84.92
2023-01-17T01:41:36.327Z,85.03
2023-01-17T01:42:36.343Z,85.13
2023-01-17T01:43:36.281Z,85.44
2023-01-17T01:44:36.310Z,85.65
2023-01-17T01:45:36.304Z,85.55
2023-01-17T01:46:36.269Z,85.24
2023-01-17T01:47:36.280Z,85.13
2023-01-17T01:48:36.273Z,85.24
2023-01-17T01:49:36.210Z,85.44
2023-01-17T01:50:36.273Z,85.55
2023-01-17T01:51:36.208Z,85.55
2023-01-17T01:52:36.218Z,85.75
2023-01-17T01:53:36.191Z,85.86
2023-01-17T01:54:36.232Z,85.86
2023-01-17T01:55:37.116Z,85.86
2023-01-17T01:56:37.147Z,85.96
2023-01-17T01:57:36.136Z,86.17
2023-01-17T01:58:36.224Z,86.07
2023-01-17T01:59:36.108Z,86.17
2023-01-17T02:00:36.223Z,86.47
2023-01-17T02:02:31.335Z,86.62
2023-01-17T02:03:31.280Z,86.68
2023-01-17T02:04:31.269Z,87.04
2023-01-17T02:05:31.253Z,87.35
2023-01-17T02:06:31.253Z,87.45
2023-01-17T02:07:32.220Z,87.45
2023-01-17T02:08:31.237Z,87.66
2023-01-17T02:09:31.190Z,88.07
2023-01-17T02:10:31.194Z,88.07
2023-01-17T02:11:31.154Z,88.48
2023-01-17T02:12:31.178Z,88.39
2023-01-17T02:13:31.155Z,88.48
2023-01-17T02:14:31.160Z,88.48
2023-01-17T02:15:31.124Z,88.69
2023-01-17T02:16:31.187Z,88.90
2023-01-17T02:17:31.114Z,88.79
2023-01-17T02:18:31.142Z,88.48
2023-01-17T02:19:31.075Z,88.28
2023-01-17T02:20:31.087Z,88.48
2023-01-17T02:21:31.066Z,88.59
2023-01-17T02:22:31.056Z,88.48
2023-01-17T02:23:31.081Z,88.48
2023-01-17T02:24:31.089Z,88.48
2023-01-17T02:25:31.009Z,88.48
2023-01-17T02:26:31.029Z,88.48
2023-01-17T02:27:30.997Z,88.65
2023-01-17T02:28:31.023Z,88.55
2023-01-17T02:29:30.997Z,88.24
2023-01-17T02:30:30.988Z,87.93
2023-01-17T02:31:30.988Z,88.03
2023-01-17T02:32:31.171Z,88.39
2023-01-17T02:33:30.919Z,88.48
2023-01-17T02:34:30.939Z,88.28
2023-01-17T02:35:30.923Z,88.24
2023-01-17T02:36:30.914Z,88.07
2023-01-17T02:37:30.892Z,88.18
2023-01-17T02:38:30.918Z,88.39
2023-01-17T02:39:30.862Z,88.45
2023-01-17T02:40:30.878Z,88.48
2023-01-17T02:41:30.842Z,88.39
2023-01-17T02:42:30.858Z,88.24
2023-01-17T02:43:30.803Z,88.03
2023-01-17T02:44:30.820Z,87.93
2023-01-17T02:45:31.753Z,87.72
2023-01-17T02:46:30.791Z,87.41
2023-01-17T02:47:30.788Z,87.10
2023-01-17T02:48:30.770Z,86.79
2023-01-17T02:49:30.738Z,86.89
2023-01-17T02:50:30.753Z,86.89
2023-01-17T02:51:30.724Z,86.79
2023-01-17T02:52:30.759Z,86.79
2023-01-17T02:53:30.708Z,86.79
2023-01-17T02:54:30.703Z,86.58
2023-01-17T02:55:30.713Z,86.47
2023-01-17T02:56:32.531Z,86.17
2023-01-17T02:57:30.666Z,85.96
2023-01-17T02:58:30.677Z,85.79
2023-01-17T02:59:30.636Z,86.00
2023-01-17T03:00:30.640Z,86.10
2023-01-17T03:01:30.750Z,85.79
2023-01-17T03:02:30.628Z,85.79
2023-01-17T03:03:30.601Z,85.48
2023-01-17T03:04:30.590Z,85.17
2023-01-17T03:05:30.566Z,85.06
2023-01-17T03:06:30.582Z,85.17
2023-01-17T03:07:30.541Z,85.27
2023-01-17T03:08:30.557Z,85.27
2023-01-17T03:09:30.517Z,85.13
2023-01-17T03:10:30.527Z,84.51
2023-01-17T03:11:30.494Z,84.51
2023-01-17T03:12:30.533Z,84.61
2023-01-17T03:13:31.448Z,84.30
2023-01-17T03:14:30.497Z,83.99
2023-01-17T03:15:30.467Z,83.99
2023-01-17T03:16:30.483Z,84.09
2023-01-17T03:17:30.447Z,83.89
2023-01-17T03:18:30.450Z,83.89
2023-01-17T03:19:30.417Z,83.78
2023-01-17T03:20:30.413Z,83.68
2023-01-17T03:21:30.381Z,83.68
2023-01-17T03:22:30.428Z,83.47
2023-01-17T03:23:30.376Z,83.89
2023-01-17T03:24:30.382Z,84.09
2023-01-17T03:25:30.336Z,83.99
2023-01-17T03:26:30.355Z,83.99
2023-01-17T03:27:30.313Z,83.89
2023-01-17T03:28:30.338Z,83.78
2023-01-17T03:29:30.307Z,83.78
2023-01-17T03:30:30.345Z,83.78
2023-01-17T03:31:30.278Z,83.78
2023-01-17T03:32:30.289Z,83.68
2023-01-17T03:33:30.254Z,83.47
2023-01-17T03:34:30.295Z,83.37
2023-01-17T03:35:30.235Z,83.16
2023-01-17T03:36:30.245Z,82.75
2023-01-17T03:37:30.214Z,82.95
2023-01-17T03:38:30.240Z,83.06
2023-01-17T03:39:30.223Z,82.54
2023-01-17T03:40:30.216Z,82.54
2023-01-17T03:41:30.174Z,82.54
2023-01-17T03:42:30.181Z,82.65
2023-01-17T03:43:30.149Z,82.60
2023-01-17T03:44:30.172Z,82.50
2023-01-17T03:45:30.154Z,82.50
2023-01-17T03:46:30.143Z,82.60
2023-01-17T03:47:30.107Z,82.81
2023-01-17T03:48:30.131Z,82.71
2023-01-17T03:49:30.100Z,83.02
2023-01-17T03:50:30.128Z,82.92
2023-01-17T03:51:30.055Z,82.92
2023-01-17T03:52:30.071Z,82.81
2023-01-17T03:53:30.049Z,82.95
2023-01-17T03:54:30.069Z,83.06
2023-01-17T03:55:30.006Z,82.95
2023-01-17T03:56:30.069Z,83.26
2023-01-17T03:57:30.007Z,83.47
2023-01-17T03:58:29.999Z,83.47
2023-01-17T03:59:31.167Z,83.47
2023-01-17T04:00:29.982Z,83.78
2023-01-17T04:01:30.030Z,84.09
2023-01-17T04:02:29.982Z,83.68
2023-01-17T04:03:29.931Z,83.89
2023-01-17T04:04:29.940Z,83.89
2023-01-17T04:05:29.914Z,83.93
2023-01-17T04:06:29.903Z,84.13
2023-01-17T04:07:29.863Z,84.55
2023-01-17T04:08:29.900Z,84.55
2023-01-17T04:09:29.857Z,84.55
2023-01-17T04:10:29.888Z,84.13
2023-01-17T04:11:29.828Z,83.83
2023-01-17T04:12:29.833Z,83.93
2023-01-17T04:13:29.831Z,84.03
2023-01-17T04:14:29.834Z,83.93
2023-01-17T04:15:29.787Z,84.03
2023-01-17T04:16:29.823Z,84.23
2023-01-17T04:17:29.761Z,84.23
2023-01-17T04:18:29.777Z,84.34
2023-01-17T04:19:29.737Z,84.55
2023-01-17T04:20:29.761Z,84.96
2023-01-17T04:21:29.742Z,85.06
2023-01-17T04:22:29.705Z,85.17
2023-01-17T04:23:29.780Z,84.96
2023-01-17T04:24:29.678Z,85.06
2023-01-17T04:25:29.689Z,85.17
2023-01-17T04:26:29.678Z,85.27
2023-01-17T04:27:29.688Z,85.38
2023-01-17T04:28:29.630Z,85.58
2023-01-17T04:29:29.656Z,85.69
2023-01-17T04:30:29.685Z,85.89
2023-01-17T04:31:29.668Z,85.89
2023-01-17T04:32:29.604Z,85.69
2023-01-17T04:33:29.634Z,85.89
2023-01-17T04:34:29.573Z,86.21
2023-01-17T04:35:29.579Z,86.10
2023-01-17T04:36:29.549Z,86.21
2023-01-17T04:37:29.572Z,86.31
2023-01-17T04:38:29.535Z,86.52
2023-01-17T04:39:29.564Z,86.21
2023-01-17T04:40:29.538Z,86.10
2023-01-17T04:41:29.534Z,85.94
2023-01-17T04:42:29.476Z,86.25
2023-01-17T04:43:29.504Z,86.25
2023-01-17T04:44:29.462Z,86.15
2023-01-17T04:45:29.471Z,86.04
2023-01-17T04:46:29.481Z,85.94
2023-01-17T04:47:29.452Z,85.94
2023-01-17T04:48:29.414Z,86.55
2023-01-17T04:49:29.433Z,86.45
2023-01-17T04:50:29.395Z,86.55
2023-01-17T04:51:29.416Z,86.66
2023-01-17T04:52:29.374Z,86.49
2023-01-17T04:53:29.385Z,86.60
2023-01-17T04:54:29.349Z,86.91
2023-01-17T04:55:29.358Z,86.91
2023-01-17T04:56:29.336Z,87.22
2023-01-17T04:57:29.338Z,87.43
2023-01-17T04:58:29.306Z,87.43
2023-01-17T04:59:29.352Z,87.43
2023-01-17T05:00:29.290Z,87.12
2023-01-17T05:01:29.462Z,87.01
2023-01-17T05:02:29.329Z,87.12
2023-01-17T05:03:29.287Z,87.12
2023-01-17T05:04:29.257Z,86.91
2023-01-17T05:05:29.246Z,86.49
2023-01-17T05:06:29.222Z,86.49
2023-01-17T05:07:29.249Z,86.49
2023-01-17T05:08:29.196Z,86.29
2023-01-17T05:09:29.209Z,86.49
2023-01-17T05:10:29.191Z,86.49
2023-01-17T05:11:29.180Z,85.91
2023-01-17T05:12:29.155Z,85.50
2023-01-17T05:13:29.184Z,85.81
2023-01-17T05:14:29.119Z,85.71
2023-01-17T05:15:29.181Z,85.29
2023-01-17T05:16:29.109Z,85.14
2023-01-17T05:17:29.154Z,85.14
2023-01-17T05:18:29.094Z,84.52
2023-01-17T05:19:29.090Z,84.63
2023-01-17T05:20:29.050Z,84.52
2023-01-17T05:21:29.069Z,84.42
2023-01-17T05:22:29.043Z,84.31
2023-01-17T05:23:29.697Z,84.11
2023-01-17T05:24:29.015Z,83.80
2023-01-17T05:25:29.040Z,82.86
2023-01-17T05:26:29.001Z,82.97
2023-01-17T05:27:29.014Z,82.65
2023-01-17T05:28:28.985Z,82.86
2023-01-17T05:29:28.985Z,83.17
2023-01-17T05:30:28.977Z,83.17
2023-01-17T05:31:28.983Z,83.17
2023-01-17T05:32:28.937Z,83.17
2023-01-17T05:33:28.951Z,83.28
2023-01-17T05:34:28.903Z,83.59
2023-01-17T05:35:28.936Z,83.48
2023-01-17T05:36:28.888Z,83.69
2023-01-17T05:37:28.915Z,84.11
2023-01-17T05:38:28.865Z,84.42
2023-01-17T05:39:28.886Z,84.31
2023-01-17T05:40:28.833Z,84.52
2023-01-17T05:41:29.808Z,84.31
2023-01-17T05:42:28.832Z,84.42
2023-01-17T05:43:28.835Z,84.67
2023-01-17T05:44:28.804Z,84.98
2023-01-17T05:45:28.813Z,85.19
2023-01-17T05:46:28.801Z,85.39
2023-01-17T05:47:28.787Z,85.39
2023-01-17T05:48:28.751Z,85.08
2023-01-17T05:49:28.771Z,85.19
2023-01-17T05:50:28.727Z,85.19
2023-01-17T05:51:28.765Z,84.98
2023-01-17T05:52:28.727Z,84.98
2023-01-17T05:53:28.722Z,85.08
2023-01-17T05:54:28.687Z,85.08
2023-01-17T05:55:28.703Z,85.08
2023-01-17T05:56:28.654Z,85.29
2023-01-17T05:57:28.679Z,85.39
2023-01-17T05:58:28.646Z,85.08
2023-01-17T05:59:37.054Z,85.29
2023-01-17T06:00:29.617Z,85.39
2023-01-17T06:01:28.633Z,85.50
2023-01-17T06:02:28.672Z,85.60
2023-01-17T06:03:28.607Z,85.60
2023-01-17T06:04:28.622Z,85.50
2023-01-17T06:05:28.613Z,85.71
2023-01-17T06:06:28.565Z,85.50
2023-01-17T06:07:28.576Z,85.50
2023-01-17T06:08:28.531Z,85.60
2023-01-17T06:09:28.544Z,85.85
2023-01-17T06:10:28.499Z,86.26
2023-01-17T06:11:28.533Z,86.36
2023-01-17T06:12:28.492Z,86.36
2023-01-17T06:13:28.515Z,86.26
2023-01-17T06:14:28.478Z,86.16
2023-01-17T06:15:28.474Z,86.05
2023-01-17T06:16:28.480Z,86.05
2023-01-17T06:17:28.462Z,86.05
2023-01-17T06:18:28.419Z,86.26
2023-01-17T06:19:28.437Z,86.57
2023-01-17T06:20:28.407Z,86.47
2023-01-17T06:21:28.413Z,86.57
2023-01-17T06:22:28.404Z,86.57
2023-01-17T06:23:28.403Z,86.82
2023-01-17T06:24:28.367Z,86.93
2023-01-17T06:25:28.364Z,87.03
2023-01-17T06:26:28.357Z,87.13
2023-01-17T06:27:28.337Z,87.24
2023-01-17T06:28:28.333Z,87.34
2023-01-17T06:29:29.309Z,87.65
2023-01-17T06:30:28.311Z,87.55
2023-01-17T06:31:28.371Z,87.55
2023-01-17T06:32:28.259Z,87.76
2023-01-17T06:33:28.290Z,87.86
2023-01-17T06:34:28.400Z,87.76
2023-01-17T06:35:28.265Z,87.76
2023-01-17T06:36:28.220Z,87.96
2023-01-17T06:37:28.234Z,87.96
2023-01-17T06:38:28.228Z,87.86
2023-01-17T06:39:28.199Z,87.96
2023-01-17T06:40:28.194Z,87.96
2023-01-17T06:41:28.186Z,88.17
2023-01-17T06:42:28.177Z,88.28
2023-01-17T06:43:28.415Z,88.38
2023-01-17T06:44:28.133Z,88.62
2023-01-17T06:45:28.163Z,88.84
2023-01-17T06:46:28.177Z,89.04
2023-01-17T06:47:28.120Z,89.36
2023-01-17T06:48:28.107Z,89.56
2023-01-17T06:49:28.118Z,89.67
2023-01-17T06:50:28.104Z,89.77
2023-01-17T06:51:28.075Z,90.08
2023-01-17T06:52:28.073Z,90.12
2023-01-17T06:53:28.043Z,90.23
2023-01-17T06:54:28.030Z,90.54
2023-01-17T06:55:28.030Z,90.44
2023-01-17T06:56:28.004Z,90.44
2023-01-17T06:57:28.023Z,90.44
2023-01-17T06:58:28.001Z,90.23
2023-01-17T06:59:28.215Z,90.12
2023-01-17T07:00:28.003Z,90.23
2023-01-17T07:01:28.034Z,90.19
2023-01-17T07:02:27.945Z,90.08
2023-01-17T07:03:27.972Z,89.98
2023-01-17T07:04:27.906Z,89.77
2023-01-17T07:05:27.933Z,89.77
2023-01-17T07:06:27.875Z,89.56
2023-01-17T07:07:27.893Z,89.56
2023-01-17T07:08:27.868Z,89.46
2023-01-17T07:09:27.887Z,89.25
2023-01-17T07:10:27.828Z,89.15
2023-01-17T07:11:27.877Z,89.15
2023-01-17T07:12:27.810Z,89.15
2023-01-17T07:13:27.825Z,89.15
2023-01-17T07:14:27.808Z,89.25
2023-01-17T07:15:27.811Z,89.15
2023-01-17T07:16:28.784Z,89.25
2023-01-17T07:17:27.790Z,89.04
2023-01-17T07:18:27.751Z,89.15
2023-01-17T07:19:27.758Z,89.04
2023-01-17T07:20:27.856Z,88.94
2023-01-17T07:21:27.763Z,88.84
2023-01-17T07:22:27.707Z,88.73
2023-01-17T07:23:27.724Z,88.59
2023-01-17T07:24:27.680Z,88.38
2023-01-17T07:25:27.879Z,88.48
2023-01-17T07:26:27.693Z,88.38
2023-01-17T07:27:27.848Z,88.38
2023-01-17T07:28:27.643Z,88.48
2023-01-17T07:29:27.672Z,88.48
2023-01-17T07:30:27.644Z,88.28
2023-01-17T07:31:27.704Z,88.28
2023-01-17T07:32:27.598Z,88.28
2023-01-17T07:33:27.622Z,88.48
2023-01-17T07:34:27.599Z,88.59
2023-01-17T07:35:27.601Z,88.69
2023-01-17T07:36:27.578Z,88.38
2023-01-17T07:37:27.608Z,88.38
2023-01-17T07:38:27.544Z,88.38
2023-01-17T07:39:27.548Z,88.38
2023-01-17T07:40:27.506Z,88.38
2023-01-17T07:41:27.567Z,88.28
2023-01-17T07:42:27.506Z,88.17
2023-01-17T07:43:27.514Z,87.86
2023-01-17T07:44:27.480Z,87.55
2023-01-17T07:45:27.470Z,87.55
2023-01-17T07:46:27.496Z,87.76
2023-01-17T07:47:27.452Z,87.86
2023-01-17T07:48:27.428Z,88.17
2023-01-17T07:49:27.449Z,87.86
2023-01-17T07:50:27.400Z,87.65
2023-01-17T07:51:27.407Z,87.34
2023-01-17T07:52:27.368Z,87.34
2023-01-17T07:53:27.383Z,87.13
2023-01-17T07:54:27.401Z,87.03
2023-01-17T07:55:27.390Z,87.03
2023-01-17T07:56:27.340Z,87.03
2023-01-17T07:57:27.339Z,86.93
2023-01-17T07:58:27.299Z,86.93
2023-01-17T07:59:27.327Z,86.82
2023-01-17T08:00:27.300Z,86.51
2023-01-17T08:01:27.568Z,86.30
2023-01-17T08:02:27.255Z,86.09
2023-01-17T08:03:27.282Z,86.09
2023-01-17T08:04:27.238Z,86.19
2023-01-17T08:05:27.280Z,86.51
2023-01-17T08:06:27.234Z,86.61
2023-01-17T08:07:27.246Z,86.72
2023-01-17T08:08:27.193Z,86.82
2023-01-17T08:09:27.203Z,86.72
2023-01-17T08:10:27.190Z,86.82
2023-01-17T08:11:27.193Z,87.03
2023-01-17T08:12:27.183Z,87.03
2023-01-17T08:13:29.096Z,87.24
2023-01-17T08:14:27.134Z,87.65
2023-01-17T08:15:27.144Z,87.76
2023-01-17T08:16:27.195Z,87.96
2023-01-17T08:17:27.137Z,88.07
2023-01-17T08:18:27.112Z,87.86
2023-01-17T08:19:27.095Z,87.76
2023-01-17T08:20:28.105Z,88.07
2023-01-17T08:21:27.099Z,88.48
2023-01-17T08:22:27.035Z,88.17
2023-01-17T08:23:27.049Z,87.96
2023-01-17T08:24:27.013Z,87.76
2023-01-17T08:25:27.039Z,87.76
2023-01-17T08:26:27.021Z,87.55
2023-01-17T08:27:27.016Z,87.24
2023-01-17T08:28:26.979Z,87.03
2023-01-17T08:29:26.985Z,86.82
2023-01-17T08:30:26.992Z,86.61
2023-01-17T08:31:27.043Z,86.72
2023-01-17T08:32:26.957Z,86.61
2023-01-17T08:33:26.969Z,86.72
2023-01-17T08:34:26.924Z,86.82
2023-01-17T08:35:26.930Z,86.82
2023-01-17T08:36:26.889Z,86.82
2023-01-17T08:37:26.890Z,86.68
2023-01-17T08:38:26.889Z,86.57
2023-01-17T08:39:26.848Z,86.47
2023-01-17T08:40:26.873Z,86.36
2023-01-17T08:41:26.850Z,86.26
2023-01-17T08:42:26.853Z,86.16
2023-01-17T08:43:27.758Z,86.30
2023-01-17T08:44:26.821Z,86.51
2023-01-17T08:45:26.791Z,86.72
2023-01-17T08:46:26.829Z,86.72
2023-01-17T08:47:26.756Z,86.51
2023-01-17T08:48:26.776Z,86.51
2023-01-17T08:49:27.702Z,86.61
2023-01-17T08:50:26.755Z,86.72
2023-01-17T08:51:26.716Z,86.93
2023-01-17T08:52:26.799Z,87.34
2023-01-17T08:53:26.717Z,87.65
2023-01-17T08:54:26.711Z,87.76
2023-01-17T08:55:26.680Z,87.65
2023-01-17T08:56:26.709Z,87.65
2023-01-17T08:57:26.677Z,87.61
2023-01-17T08:58:26.684Z,87.96
2023-01-17T08:59:26.628Z,87.65
2023-01-17T09:00:26.650Z,87.65
2023-01-17T09:01:26.729Z,87.24
2023-01-17T09:02:26.628Z,86.82
2023-01-17T09:03:26.603Z,86.41
2023-01-17T09:04:26.676Z,85.95
2023-01-17T09:05:26.569Z,85.43
2023-01-17T09:06:26.600Z,85.12
2023-01-17T09:07:26.548Z,84.70
2023-01-17T09:08:26.569Z,84.39
2023-01-17T09:09:26.520Z,84.29
2023-01-17T09:10:26.537Z,84.08
2023-01-17T09:11:26.516Z,83.84
2023-01-17T09:12:26.507Z,83.73
2023-01-17T09:13:26.477Z,83.73
2023-01-17T09:14:26.494Z,83.84
2023-01-17T09:15:26.443Z,83.84
2023-01-17T09:16:26.502Z,83.84
2023-01-17T09:17:26.429Z,83.73
2023-01-17T09:18:26.509Z,83.84
2023-01-17T09:19:26.406Z,83.94
2023-01-17T09:20:26.425Z,83.53
2023-01-17T09:21:26.412Z,83.42
2023-01-17T09:22:26.399Z,83.32
2023-01-17T09:23:26.367Z,82.80
2023-01-17T09:24:26.379Z,82.70
2023-01-17T09:25:26.358Z,82.80
2023-01-17T09:26:26.378Z,82.80
2023-01-17T09:27:26.338Z,83.01
2023-01-17T09:28:26.339Z,83.11
2023-01-17T09:29:26.291Z,83.01
2023-01-17T09:30:26.456Z,83.11
2023-01-17T09:31:26.264Z,83.22
2023-01-17T09:32:26.305Z,83.42
2023-01-17T09:33:26.269Z,83.73
2023-01-17T09:34:26.264Z,83.94
2023-01-17T09:35:26.231Z,83.84
2023-01-17T09:36:26.270Z,83.32
2023-01-17T09:37:26.214Z,83.01
2023-01-17T09:38:26.235Z,82.49
2023-01-17T09:39:26.199Z,82.59
2023-01-17T09:40:26.197Z,82.39
2023-01-17T09:41:26.182Z,82.39
2023-01-17T09:42:26.180Z,82.39
2023-01-17T09:43:26.164Z,82.39
2023-01-17T09:44:26.177Z,82.28
2023-01-17T09:45:26.120Z,82.39
2023-01-17T09:46:26.138Z,82.49
2023-01-17T09:47:26.160Z,82.80
2023-01-17T09:48:26.114Z,82.90
2023-01-17T09:49:26.088Z,83.11
2023-01-17T09:50:26.117Z,83.01
2023-01-17T09:51:26.052Z,82.90
2023-01-17T09:52:26.073Z,82.76
2023-01-17T09:53:26.059Z,82.45
2023-01-17T09:54:26.069Z,82.34
2023-01-17T09:55:26.001Z,82.76
2023-01-17T09:56:26.022Z,82.97
2023-01-17T09:57:25.993Z,82.76
2023-01-17T09:58:26.020Z,82.76
2023-01-17T09:59:32.844Z,82.97
2023-01-17T10:00:26.998Z,83.59
2023-01-17T10:01:26.191Z,83.38
2023-01-17T10:02:26.765Z,83.07
2023-01-17T10:03:26.055Z,82.24
2023-01-17T10:04:26.021Z,82.03
2023-01-17T10:05:25.905Z,82.34
2023-01-17T10:06:25.930Z,82.03
2023-01-17T10:07:25.897Z,81.27
2023-01-17T10:08:25.883Z,81.06
2023-01-17T10:09:26.819Z,80.96
2023-01-17T10:10:25.861Z,80.75
2023-01-17T10:11:25.822Z,80.65
2023-01-17T10:12:25.979Z,80.23
2023-01-17T10:13:25.823Z,79.61
2023-01-17T10:14:25.838Z,79.61
2023-01-17T10:15:25.793Z,79.71
2023-01-17T10:16:25.854Z,79.41
2023-01-17T10:17:25.769Z,79.41
2023-01-17T10:18:30.408Z,78.78
2023-01-17T10:19:25.753Z,78.37
2023-01-17T10:20:25.759Z,78.78
2023-01-17T10:21:25.776Z,78.47
2023-01-17T10:22:25.741Z,77.64
2023-01-17T10:23:25.709Z,77.33
2023-01-17T10:24:25.770Z,77.75
2023-01-17T10:25:25.682Z,77.81
2023-01-17T10:26:25.691Z,77.81
2023-01-17T10:27:25.660Z,78.27
2023-01-17T10:28:25.680Z,78.23
2023-01-17T10:29:25.697Z,77.81
2023-01-17T10:30:25.654Z,77.61
2023-01-17T10:31:25.632Z,77.19
2023-01-17T10:32:25.621Z,77.29
2023-01-17T10:33:25.578Z,76.78
2023-01-17T10:34:25.628Z,76.98
2023-01-17T10:35:25.579Z,76.98
2023-01-17T10:36:25.581Z,76.67
2023-01-17T10:37:25.549Z,76.78
2023-01-17T10:38:25.554Z,76.88
2023-01-17T10:39:25.535Z,77.09
2023-01-17T10:40:25.538Z,76.36
2023-01-17T10:41:25.489Z,75.95
2023-01-17T10:42:25.513Z,76.15
2023-01-17T10:43:25.488Z,76.46
2023-01-17T10:44:25.491Z,76.98
2023-01-17T10:45:25.461Z,76.98
2023-01-17T10:46:25.577Z,76.67
2023-01-17T10:47:25.434Z,76.15
2023-01-17T10:48:25.452Z,75.84
2023-01-17T10:49:25.412Z,75.74
2023-01-17T10:50:25.415Z,75.74
2023-01-17T10:51:25.392Z,75.63
2023-01-17T10:52:25.423Z,75.71
2023-01-17T10:53:25.376Z,76.15
2023-01-17T10:54:25.375Z,75.84
2023-01-17T10:55:25.337Z,75.92
2023-01-17T10:56:25.350Z,75.60
2023-01-17T10:57:26.345Z,75.50
2023-01-17T10:58:25.344Z,74.98
2023-01-17T10:59:25.291Z,74.67
2023-01-17T11:00:25.316Z,74.77
2023-01-17T11:01:25.381Z,74.88
2023-01-17T11:02:25.450Z,74.88
2023-01-17T11:03:25.289Z,74.77
2023-01-17T11:04:25.260Z,74.26
2023-01-17T11:05:25.608Z,74.36
2023-01-17T11:06:25.237Z,74.36
2023-01-17T11:07:25.301Z,74.46
2023-01-17T11:08:25.231Z,74.57
2023-01-17T11:09:25.187Z,74.46
2023-01-17T11:10:25.189Z,74.22
2023-01-17T11:11:25.168Z,73.91
2023-01-17T11:12:25.192Z,73.60
2023-01-17T11:13:25.166Z,74.02
2023-01-17T11:14:25.152Z,73.71
2023-01-17T11:15:25.225Z,73.50
2023-01-17T11:16:27.442Z,72.88
2023-01-17T11:17:25.096Z,72.50
2023-01-17T11:18:25.125Z,72.08
2023-01-17T11:19:25.125Z,72.91
2023-01-17T11:20:25.095Z,73.32
2023-01-17T11:21:25.041Z,73.25
2023-01-17T11:22:25.071Z,73.25
2023-01-17T11:23:25.073Z,73.46
2023-01-17T11:24:25.524Z,73.15
2023-01-17T11:25:25.005Z,73.53
2023-01-17T11:26:25.797Z,73.74
2023-01-17T11:27:25.001Z,73.32
2023-01-17T11:28:25.009Z,73.29
2023-01-17T11:29:25.000Z,72.36
2023-01-17T11:30:24.994Z,69.98
2023-01-17T11:31:24.989Z,70.81
2023-01-17T11:32:24.946Z,70.91
2023-01-17T11:33:24.916Z,71.01
2023-01-17T11:34:24.945Z,71.12
2023-01-17T11:35:24.912Z,71.43
2023-01-17T11:36:24.907Z,71.29
2023-01-17T11:37:24.875Z,71.08
2023-01-17T11:38:24.901Z,71.29
2023-01-17T11:39:24.854Z,69.84
2023-01-17T11:40:25.018Z,69.95
2023-01-17T11:41:24.829Z,70.36
2023-01-17T11:42:24.851Z,70.74
2023-01-17T11:43:25.003Z,70.53
2023-01-17T11:44:25.027Z,70.74
2023-01-17T11:45:24.828Z,70.84
2023-01-17T11:46:24.930Z,71.15
2023-01-17T11:47:25.010Z,70.53
2023-01-17T11:48:25.018Z,70.53
2023-01-17T11:49:24.741Z,70.01
2023-01-17T11:50:24.808Z,69.19
2023-01-17T11:51:24.713Z,68.98
2023-01-17T11:52:24.728Z,69.09
2023-01-17T11:53:25.028Z,68.80
2023-01-17T11:54:24.699Z,69.53
2023-01-17T11:55:24.664Z,70.05
2023-01-17T11:56:24.709Z,70.26
2023-01-17T11:57:24.661Z,70.26
2023-01-17T11:58:24.685Z,70.67
2023-01-17T11:59:24.745Z,70.77
2023-01-17T12:00:24.664Z,70.12
2023-01-17T12:01:24.626Z,69.92
2023-01-17T12:02:24.751Z,69.50
2023-01-17T12:03:24.651Z,69.40
2023-01-17T12:04:24.621Z,69.09
2023-01-17T12:05:24.554Z,69.09
2023-01-17T12:06:24.588Z,68.26
2023-01-17T12:07:24.548Z,68.36
2023-01-17T12:08:24.582Z,68.23
2023-01-17T12:09:24.540Z,68.85
2023-01-17T12:10:24.587Z,68.85
2023-01-17T12:11:24.512Z,68.74
2023-01-17T12:12:24.515Z,68.33
2023-01-17T12:13:24.476Z,67.91
2023-01-17T12:14:24.511Z,67.91
2023-01-17T12:15:24.454Z,67.82
2023-01-17T12:16:24.459Z,67.40
2023-01-17T12:17:24.446Z,67.30
2023-01-17T12:18:24.438Z,67.50
2023-01-17T12:19:24.406Z,68.02
2023-01-17T12:20:24.445Z,68.12
2023-01-17T12:21:24.396Z,68.12
2023-01-17T12:22:24.416Z,68.33
2023-01-17T12:23:24.375Z,68.64
2023-01-17T12:24:24.372Z,68.64
2023-01-17T12:25:24.334Z,68.23
2023-01-17T12:26:24.356Z,68.12
2023-01-17T12:27:24.353Z,67.99
2023-01-17T12:28:24.349Z,67.61
2023-01-17T12:29:24.299Z,67.30
2023-01-17T12:30:24.295Z,67.82
2023-01-17T12:31:24.328Z,67.88
2023-01-17T12:32:24.282Z,67.78
2023-01-17T12:33:24.303Z,67.99
2023-01-17T12:34:24.284Z,67.68
2023-01-17T12:35:24.227Z,66.75
2023-01-17T12:36:24.288Z,66.33
2023-01-17T12:37:24.193Z,66.44
2023-01-17T12:38:32.464Z,66.75
2023-01-17T12:39:25.202Z,67.06
2023-01-17T12:40:24.210Z,67.16
2023-01-17T12:41:24.180Z,67.37
2023-01-17T12:42:24.189Z,67.47
2023-01-17T12:43:24.131Z,67.09
2023-01-17T12:44:24.151Z,67.30
2023-01-17T12:45:24.110Z,67.30
2023-01-17T12:46:24.284Z,67.50
2023-01-17T12:47:24.089Z,68.23
2023-01-17T12:48:24.107Z,68.02
2023-01-17T12:49:24.079Z,67.30
2023-01-17T12:50:24.092Z,65.72
2023-01-17T12:51:24.062Z,65.72
2023-01-17T12:52:24.052Z,65.61
2023-01-17T12:53:24.036Z,65.51